createdAt,value
2022-12-04T00:00:01.668Z,6.2
2022-12-04T00:06:21.612Z,6.2
2022-12-04T00:12:44.481Z,6
2022-12-04T00:19:04.572Z,6
2022-12-04T00:25:27.552Z,8
2022-12-04T00:31:47.619Z,8
2022-12-04T00:38:10.600Z,5.5
2022-12-04T00:44:30.560Z,5.5
2022-12-04T00:50:53.662Z,9.4
2022-12-04T00:57:13.596Z,9.4
2022-12-04T01:03:36.574Z,12.3
2022-12-04T01:09:56.924Z,12.3
2022-12-04T01:16:19.644Z,5.9
2022-12-04T01:22:39.519Z,5.9
2022-12-04T01:29:02.700Z,8.6
2022-12-04T01:35:22.680Z,8.6
2022-12-04T01:41:45.485Z,5.6
2022-12-04T01:48:05.538Z,5.6
2022-12-04T01:54:29.015Z,6.8
2022-12-04T02:00:51.697Z,6.8
2022-12-04T02:07:11.484Z,4.6
2022-12-04T02:13:31.646Z,4.6
2022-12-04T02:19:54.825Z,5.8
2022-12-04T02:26:14.677Z,5.8
2022-12-04T02:32:37.510Z,4.2
2022-12-04T02:38:57.541Z,4.2
2022-12-04T02:45:20.584Z,4.4
2022-12-04T02:51:40.572Z,4.4
2022-12-04T02:58:03.453Z,5.2
2022-12-04T03:04:23.616Z,5.2
2022-12-04T03:10:46.530Z,4.3
2022-12-04T03:17:06.607Z,4.3
2022-12-04T03:23:29.475Z,5.3
2022-12-04T03:29:49.648Z,5.3
2022-12-04T03:36:12.466Z,6.4
2022-12-04T03:42:32.596Z,6.4
2022-12-04T03:48:55.505Z,4.6
2022-12-04T03:55:15.751Z,4.6
2022-12-04T04:01:38.556Z,3.9
2022-12-04T04:07:58.636Z,3.9
2022-12-04T04:14:21.482Z,3.3
2022-12-04T04:30:28.303Z,5.5
2022-12-04T04:36:50.974Z,4
2022-12-04T04:43:10.511Z,4
2022-12-04T04:49:33.681Z,4.9
2022-12-04T04:55:53.506Z,4.9
2022-12-04T05:02:16.571Z,4.6
2022-12-04T05:08:36.637Z,4.6
2022-12-04T05:14:59.568Z,3.8
2022-12-04T05:21:19.575Z,3.8
2022-12-04T05:27:42.595Z,3.6
2022-12-04T05:34:02.507Z,3.6
2022-12-04T05:40:25.518Z,2.8
2022-12-04T05:46:45.644Z,2.8
2022-12-04T05:53:08.506Z,3.7
2022-12-04T05:59:28.581Z,3.7
2022-12-04T06:05:51.607Z,3.5
2022-12-04T06:12:11.467Z,3.5
2022-12-04T06:18:34.547Z,4.8
2022-12-04T06:24:54.596Z,4.8
2022-12-04T06:31:17.542Z,3.7
2022-12-04T06:37:37.517Z,3.7
2022-12-04T06:44:00.699Z,6.8
2022-12-04T06:50:20.529Z,6.8
2022-12-04T06:56:43.494Z,5.8
2022-12-04T07:03:03.494Z,5.8
2022-12-04T07:09:26.601Z,6.5
2022-12-04T07:15:46.473Z,6.5
2022-12-04T07:22:09.659Z,3.5
2022-12-04T07:28:29.522Z,3.5
2022-12-04T07:34:52.492Z,6.5
2022-12-04T07:41:12.706Z,6.5
2022-12-04T07:47:35.501Z,7.1
2022-12-04T07:53:55.515Z,7.1
2022-12-04T08:00:18.558Z,5.6
2022-12-04T08:06:38.497Z,5.6
2022-12-04T08:13:01.692Z,5.5
2022-12-04T08:19:21.514Z,5.5
2022-12-04T08:25:44.534Z,5.4
2022-12-04T08:32:04.679Z,5.4
2022-12-04T08:38:27.520Z,2.8
2022-12-04T08:44:47.544Z,2.8
2022-12-04T08:51:10.574Z,4.5
2022-12-04T08:57:30.593Z,4.5
2022-12-04T09:03:53.563Z,4.9
2022-12-04T09:10:13.559Z,4.9
2022-12-04T09:16:36.579Z,4.6
2022-12-04T09:39:24.431Z,6.6
2022-12-04T09:45:44.474Z,6.6
2022-12-04T09:52:07.498Z,4.5
2022-12-04T09:58:27.549Z,4.5
2022-12-04T10:04:50.575Z,6
2022-12-04T10:11:10.572Z,6
2022-12-04T10:17:33.507Z,4.2
2022-12-04T10:23:53.620Z,4.2
2022-12-04T10:30:16.479Z,5.3
2022-12-04T10:36:36.723Z,5.3
2022-12-04T10:42:59.661Z,5.3
2022-12-04T10:49:19.477Z,5.3
2022-12-04T10:55:42.529Z,7.3
2022-12-04T11:02:06.472Z,7.3
2022-12-04T11:08:25.710Z,6
2022-12-04T11:14:47.106Z,6
2022-12-04T11:21:09.443Z,6.1
2022-12-04T11:27:29.592Z,6.1
2022-12-04T11:33:52.639Z,7.7
2022-12-04T11:40:12.492Z,7.7
2022-12-04T11:46:35.868Z,4
2022-12-04T11:52:55.639Z,4
2022-12-04T11:59:18.526Z,6.9
2022-12-04T12:05:44.877Z,6.9
2022-12-04T12:12:07.493Z,4.7
2022-12-04T12:18:27.562Z,4.7
2022-12-04T12:24:51.503Z,2.9
2022-12-04T12:31:10.693Z,2.9
2022-12-04T12:37:33.639Z,3.2
2022-12-04T12:43:53.565Z,3.2
2022-12-04T12:50:16.538Z,4.1
2022-12-04T12:56:36.634Z,4.1
2022-12-04T13:02:59.573Z,4.3
2022-12-04T13:09:19.763Z,4.3
2022-12-04T13:15:42.486Z,4.2
2022-12-04T13:22:02.503Z,4.2
2022-12-04T13:28:25.613Z,6.3
2022-12-04T13:34:45.525Z,6.3
2022-12-04T13:41:08.501Z,3.6
2022-12-04T13:47:28.634Z,3.6
2022-12-04T13:53:51.523Z,4.6
2022-12-04T14:00:11.669Z,4.6
2022-12-04T14:06:34.657Z,5
2022-12-04T14:12:54.605Z,5
2022-12-04T14:19:17.486Z,6.4
2022-12-04T14:25:37.518Z,6.4
2022-12-04T14:49:46.730Z,10.9
2022-12-04T14:56:09.508Z,10.9
2022-12-04T15:02:29.576Z,10.9
2022-12-04T15:08:52.549Z,7.6
2022-12-04T15:15:12.653Z,7.6
2022-12-04T15:21:35.633Z,5.9
2022-12-04T15:27:55.577Z,5.9
2022-12-04T15:34:18.505Z,7.2
2022-12-04T15:40:38.469Z,7.2
2022-12-04T15:47:01.721Z,4.7
2022-12-04T15:53:21.816Z,4.7
2022-12-04T15:59:44.561Z,5.9
2022-12-04T16:06:04.539Z,5.9
2022-12-04T16:12:27.680Z,5.2
2022-12-04T16:18:47.496Z,5.2
2022-12-04T16:25:10.554Z,8
2022-12-04T16:31:30.736Z,8
2022-12-04T16:37:53.523Z,6.7
2022-12-04T16:44:13.635Z,6.7
2022-12-04T16:50:36.606Z,4.6
2022-12-04T16:56:56.514Z,4.6
2022-12-04T17:03:19.697Z,4.1
2022-12-04T17:09:39.592Z,4.1
2022-12-04T17:16:02.656Z,4.9
2022-12-04T17:22:22.480Z,4.9
2022-12-04T17:28:45.629Z,8.5
2022-12-04T17:35:05.457Z,8.5
2022-12-04T17:41:28.591Z,6.5
2022-12-04T17:47:48.608Z,6.5
2022-12-04T17:54:11.595Z,5.9
2022-12-04T18:00:31.724Z,5.9
2022-12-04T18:06:54.461Z,3.8
2022-12-04T18:13:15.097Z,3.8
2022-12-04T18:19:38.757Z,9
2022-12-04T18:25:58.617Z,9
2022-12-04T18:32:21.727Z,6.1
2022-12-04T18:38:41.777Z,6.1
2022-12-04T18:45:04.610Z,7.8
2022-12-04T18:51:24.488Z,7.8
2022-12-04T18:57:47.675Z,4
2022-12-04T19:04:07.637Z,4
2022-12-04T19:10:30.685Z,7.2
2022-12-04T19:16:50.749Z,7.2
2022-12-04T19:23:13.512Z,6.6
2022-12-04T19:29:33.465Z,6.6
2022-12-04T19:46:19.265Z,8.6
2022-12-04T19:52:39.499Z,8.6
2022-12-04T19:59:02.496Z,13.2
2022-12-04T20:05:22.702Z,13.2
2022-12-04T20:11:45.462Z,13.2
2022-12-04T20:18:05.492Z,13.2
2022-12-04T20:24:28.600Z,9.5
2022-12-04T20:30:48.600Z,9.5
2022-12-04T20:37:11.526Z,11.7
2022-12-04T20:43:31.677Z,11.7
2022-12-04T20:49:55.003Z,8.3
2022-12-04T20:56:14.688Z,8.3
2022-12-04T21:02:37.655Z,11.2
2022-12-04T21:08:57.505Z,11.2
2022-12-04T21:15:20.831Z,6.4
2022-12-04T21:21:40.512Z,6.4
2022-12-04T21:28:03.577Z,4.1
2022-12-04T21:34:23.486Z,4.1
2022-12-04T21:40:46.524Z,7
2022-12-04T21:47:06.464Z,7
2022-12-04T21:53:29.548Z,9.9
2022-12-04T21:59:49.510Z,9.9
2022-12-04T22:06:12.464Z,6.8
2022-12-04T22:12:48.841Z,6.8
2022-12-04T22:18:55.693Z,7.6
2022-12-04T22:25:15.635Z,7.6
2022-12-04T22:31:38.787Z,11.8
2022-12-04T22:37:58.592Z,11.8
2022-12-04T22:44:21.631Z,7.7
2022-12-04T22:50:41.553Z,7.7
2022-12-04T22:57:04.578Z,11.7
2022-12-04T23:22:35.539Z,21.9
2022-12-04T23:28:55.489Z,21.9
2022-12-04T23:35:18.577Z,21.9
2022-12-04T23:41:38.596Z,21.9
2022-12-04T23:48:01.673Z,9.1
2022-12-04T23:54:21.453Z,9.1
